createdAt,value
2023-12-30T00:00:59.000Z,46.55913978494665
2023-12-30T00:02:01.000Z,42.36559139784981
2023-12-30T00:03:03.000Z,42.68817204301111
2023-12-30T00:04:05.000Z,44.51612903225845
2023-12-30T00:05:07.000Z,43.763440860215425
2023-12-30T00:06:09.000Z,46.66666666666708
2023-12-30T00:07:11.000Z,43.97849462365629
2023-12-30T00:08:14.000Z,43.118279569892835
2023-12-30T00:09:16.000Z,46.774193548387515
2023-12-30T00:10:18.000Z,45.3763440860219
2023-12-30T00:11:20.000Z,43.763440860215425
2023-12-30T00:12:22.000Z,43.44086021505413
2023-12-30T00:13:24.000Z,44.408602150538016
2023-12-30T00:14:26.000Z,43.118279569892835
2023-12-30T00:15:28.000Z,48.17204301075313
2023-12-30T00:16:31.000Z,43.118279569892835
2023-12-30T00:17:33.000Z,43.65591397849499
2023-12-30T00:18:35.000Z,43.3333333333337
2023-12-30T00:19:37.000Z,42.04301075268852
2023-12-30T00:20:40.000Z,45.16129032258104
2023-12-30T00:21:42.000Z,44.73118279569931
2023-12-30T00:22:44.000Z,43.65591397849499
2023-12-30T00:23:47.000Z,43.44086021505413
2023-12-30T00:24:49.000Z,43.87096774193586
2023-12-30T00:25:51.000Z,46.02150537634449
2023-12-30T00:26:53.000Z,47.63440860215097
2023-12-30T00:27:55.000Z,46.66666666666708
2023-12-30T00:28:57.000Z,48.0645161290327
2023-12-30T00:30:00.000Z,46.55913978494665
2023-12-30T00:31:02.000Z,43.118279569892835
2023-12-30T00:32:04.000Z,46.66666666666708
2023-12-30T00:33:06.000Z,44.51612903225845
2023-12-30T00:34:08.000Z,43.97849462365629
2023-12-30T00:35:10.000Z,43.0107526881724
2023-12-30T00:36:12.000Z,41.82795698924765
2023-12-30T00:37:16.000Z,42.79569892473154
2023-12-30T00:38:18.000Z,43.763440860215425
2023-12-30T00:39:20.000Z,41.935483870968085
2023-12-30T00:40:22.000Z,43.54838709677456
2023-12-30T00:41:24.000Z,41.82795698924765
2023-12-30T00:42:26.000Z,42.25806451612938
2023-12-30T00:43:28.000Z,44.51612903225845
2023-12-30T00:44:31.000Z,43.225806451613266
2023-12-30T00:45:33.000Z,50.53763440860263
2023-12-30T00:46:35.000Z,47.956989247312265
2023-12-30T00:47:37.000Z,52.795698924731695
2023-12-30T00:48:39.000Z,48.38709677419399
2023-12-30T00:49:41.000Z,62.365591397850125
2023-12-30T00:50:43.000Z,52.150537634409105
2023-12-30T00:51:46.000Z,57.526881720430694
2023-12-30T00:52:48.000Z,50.53763440860263
2023-12-30T00:53:50.000Z,52.58064516129083
2023-12-30T00:54:52.000Z,48.81720430107572
2023-12-30T00:55:54.000Z,50.967741935484355
2023-12-30T00:56:56.000Z,54.516129032258604
2023-12-30T00:57:58.000Z,52.04301075268867
2023-12-30T00:59:00.000Z,50.322580645161764
2023-12-30T01:00:03.000Z,49.46236559139831
2023-12-30T01:01:05.000Z,46.88172043010795
2023-12-30T01:02:07.000Z,53.54838709677472
2023-12-30T01:03:09.000Z,50.53763440860263
2023-12-30T01:04:11.000Z,52.58064516129083
2023-12-30T01:05:13.000Z,51.82795698924781
2023-12-30T01:06:16.000Z,52.150537634409105
2023-12-30T01:07:18.000Z,49.89247311828004
2023-12-30T01:08:20.000Z,52.04301075268867
2023-12-30T01:09:22.000Z,51.07526881720479
2023-12-30T01:10:24.000Z,51.612903225806946
2023-12-30T01:11:26.000Z,49.03225806451658
2023-12-30T01:12:28.000Z,50.75268817204349
2023-12-30T01:13:31.000Z,50.75268817204349
2023-12-30T01:14:33.000Z,50.967741935484355
2023-12-30T01:15:35.000Z,49.46236559139831
2023-12-30T01:16:37.000Z,49.89247311828004
2023-12-30T01:17:39.000Z,46.98924731182838
2023-12-30T01:18:41.000Z,46.98924731182838
2023-12-30T01:19:43.000Z,50.322580645161764
2023-12-30T01:20:46.000Z,48.70967741935529
2023-12-30T01:21:48.000Z,54.516129032258604
2023-12-30T01:22:50.000Z,53.11827956989299
2023-12-30T01:23:52.000Z,49.35483870967788
2023-12-30T01:24:54.000Z,47.84946236559183
2023-12-30T01:25:56.000Z,49.46236559139831
2023-12-30T01:26:58.000Z,50.967741935484355
2023-12-30T01:28:01.000Z,50.53763440860263
2023-12-30T01:29:03.000Z,47.311827956989674
2023-12-30T01:30:05.000Z,51.29032258064565
2023-12-30T01:31:07.000Z,48.494623655914424
2023-12-30T01:32:09.000Z,52.795698924731695
2023-12-30T01:33:11.000Z,53.333333333333854
2023-12-30T01:34:13.000Z,48.92473118279615
2023-12-30T01:35:15.000Z,46.98924731182838
2023-12-30T01:36:18.000Z,51.82795698924781
2023-12-30T01:37:20.000Z,46.45161290322622
2023-12-30T01:38:22.000Z,51.07526881720479
2023-12-30T01:39:24.000Z,54.40860215053817
2023-12-30T01:40:26.000Z,51.18279569892522
2023-12-30T01:41:28.000Z,58.49462365591458
2023-12-30T01:42:30.000Z,53.978494623656445
2023-12-30T01:43:33.000Z,49.46236559139831
2023-12-30T01:44:35.000Z,51.07526881720479
2023-12-30T01:45:37.000Z,55.91397849462422
2023-12-30T01:46:39.000Z,52.795698924731695
2023-12-30T01:47:41.000Z,49.784946236559605
2023-12-30T01:48:43.000Z,51.07526881720479
2023-12-30T01:49:46.000Z,47.52688172043054
2023-12-30T01:50:48.000Z,50.1075268817209
2023-12-30T01:51:50.000Z,50.86021505376392
2023-12-30T01:52:52.000Z,48.81720430107572
2023-12-30T01:53:54.000Z,47.52688172043054
2023-12-30T01:54:56.000Z,48.38709677419399
2023-12-30T01:55:58.000Z,47.311827956989674
2023-12-30T01:57:05.000Z,47.419354838710106
2023-12-30T01:58:08.000Z,54.08602150537688
2023-12-30T01:59:10.000Z,50.86021505376392
2023-12-30T02:00:12.000Z,49.89247311828004
2023-12-30T02:01:14.000Z,47.63440860215097
2023-12-30T02:02:16.000Z,49.677419354839174
2023-12-30T02:03:18.000Z,47.09677419354881
2023-12-30T02:04:20.000Z,44.08602150537672
2023-12-30T02:05:22.000Z,48.17204301075313
2023-12-30T02:06:25.000Z,45.591397849462766
2023-12-30T02:07:27.000Z,44.51612903225845
2023-12-30T02:08:29.000Z,42.79569892473154
2023-12-30T02:09:31.000Z,46.774193548387515
2023-12-30T02:10:33.000Z,43.118279569892835
2023-12-30T02:11:35.000Z,43.97849462365629
2023-12-30T02:12:37.000Z,45.26881720430147
2023-12-30T02:13:40.000Z,42.580645161290676
2023-12-30T02:14:42.000Z,48.27956989247356
2023-12-30T02:15:44.000Z,43.65591397849499
2023-12-30T02:16:46.000Z,42.25806451612938
2023-12-30T02:17:48.000Z,42.68817204301111
2023-12-30T02:18:50.000Z,43.118279569892835
2023-12-30T02:19:52.000Z,42.36559139784981
2023-12-30T02:20:55.000Z,43.97849462365629
2023-12-30T02:21:57.000Z,41.397849462365926
2023-12-30T02:22:59.000Z,42.473118279570244
2023-12-30T02:24:02.000Z,41.82795698924765
2023-12-30T02:25:04.000Z,41.397849462365926
2023-12-30T02:26:06.000Z,41.18279569892506
2023-12-30T02:27:08.000Z,41.07526881720463
2023-12-30T02:28:10.000Z,41.397849462365926
2023-12-30T02:29:13.000Z,41.07526881720463
2023-12-30T02:30:15.000Z,40.9677419354842
2023-12-30T02:31:17.000Z,41.290322580645494
2023-12-30T02:32:19.000Z,41.61290322580679
2023-12-30T02:33:21.000Z,41.61290322580679
2023-12-30T02:34:23.000Z,40.752688172043335
2023-12-30T02:35:25.000Z,41.07526881720463
2023-12-30T02:36:28.000Z,41.07526881720463
2023-12-30T02:37:30.000Z,42.473118279570244
2023-12-30T02:38:32.000Z,40.53763440860247
2023-12-30T02:39:34.000Z,45.26881720430147
2023-12-30T02:40:36.000Z,40.6451612903229
2023-12-30T02:41:38.000Z,42.68817204301111
2023-12-30T02:42:40.000Z,40.53763440860247
2023-12-30T02:43:43.000Z,40.86021505376377
2023-12-30T02:44:45.000Z,41.50537634408636
2023-12-30T02:45:47.000Z,41.07526881720463
2023-12-30T02:46:49.000Z,41.07526881720463
2023-12-30T02:47:51.000Z,41.07526881720463
2023-12-30T02:48:53.000Z,41.82795698924765
2023-12-30T02:49:55.000Z,41.935483870968085
2023-12-30T02:50:57.000Z,41.07526881720463
2023-12-30T02:52:00.000Z,41.290322580645494
2023-12-30T02:53:02.000Z,41.397849462365926
2023-12-30T02:54:04.000Z,42.90322580645197
2023-12-30T02:55:06.000Z,41.397849462365926
2023-12-30T02:56:08.000Z,42.04301075268852
2023-12-30T02:57:10.000Z,41.50537634408636
2023-12-30T02:58:12.000Z,40.752688172043335
2023-12-30T02:59:15.000Z,40.752688172043335
2023-12-30T03:00:17.000Z,47.311827956989674
2023-12-30T03:01:19.000Z,48.602150537634856
2023-12-30T03:02:21.000Z,49.89247311828004
2023-12-30T03:03:23.000Z,52.688172043011264
2023-12-30T03:04:25.000Z,51.82795698924781
2023-12-30T03:05:27.000Z,49.03225806451658
2023-12-30T03:06:29.000Z,51.82795698924781
2023-12-30T03:07:32.000Z,52.4731182795704
2023-12-30T03:08:34.000Z,54.08602150537688
2023-12-30T03:09:36.000Z,54.19354838709731
2023-12-30T03:10:38.000Z,58.817204301075876
2023-12-30T03:11:40.000Z,56.55913978494681
2023-12-30T03:12:42.000Z,57.84946236559199
2023-12-30T03:13:45.000Z,56.23655913978551
2023-12-30T03:14:47.000Z,52.58064516129083
2023-12-30T03:15:49.000Z,52.58064516129083
2023-12-30T03:16:51.000Z,52.25806451612954
2023-12-30T03:17:53.000Z,53.978494623656445
2023-12-30T03:18:55.000Z,48.92473118279615
2023-12-30T03:19:57.000Z,51.29032258064565
2023-12-30T03:20:59.000Z,50.64516129032306
2023-12-30T03:22:02.000Z,53.11827956989299
2023-12-30T03:23:04.000Z,49.677419354839174
2023-12-30T03:24:06.000Z,49.89247311828004
2023-12-30T03:25:08.000Z,50.21505376344133
2023-12-30T03:26:10.000Z,54.8387096774199
2023-12-30T03:27:12.000Z,49.56989247311874
2023-12-30T03:28:14.000Z,52.150537634409105
2023-12-30T03:29:17.000Z,49.03225806451658
2023-12-30T03:30:19.000Z,51.93548387096824
2023-12-30T03:31:21.000Z,51.18279569892522
2023-12-30T03:32:23.000Z,50.64516129032306
2023-12-30T03:33:25.000Z,50.322580645161764
2023-12-30T03:34:27.000Z,53.440860215054286
2023-12-30T03:35:29.000Z,51.72043010752738
2023-12-30T03:36:32.000Z,50.967741935484355
2023-12-30T03:37:34.000Z,48.602150537634856
2023-12-30T03:38:36.000Z,46.02150537634449
2023-12-30T03:39:38.000Z,50.86021505376392
2023-12-30T03:40:40.000Z,45.483870967742334
2023-12-30T03:41:42.000Z,54.19354838709731
2023-12-30T03:42:44.000Z,53.22580645161342
2023-12-30T03:43:46.000Z,47.7419354838714
2023-12-30T03:44:49.000Z,50.1075268817209
2023-12-30T03:45:51.000Z,50.21505376344133
2023-12-30T03:46:53.000Z,48.17204301075313
2023-12-30T03:47:55.000Z,48.17204301075313
2023-12-30T03:48:57.000Z,48.17204301075313
2023-12-30T03:49:59.000Z,48.0645161290327
2023-12-30T03:51:01.000Z,47.7419354838714
2023-12-30T03:52:04.000Z,47.311827956989674
2023-12-30T03:53:06.000Z,45.16129032258104
2023-12-30T03:54:08.000Z,45.483870967742334
2023-12-30T03:55:10.000Z,43.65591397849499
2023-12-30T03:56:12.000Z,44.08602150537672
2023-12-30T03:57:14.000Z,45.05376344086061
2023-12-30T03:58:16.000Z,44.73118279569931
2023-12-30T03:59:19.000Z,44.08602150537672
2023-12-30T04:00:21.000Z,44.62365591397888
2023-12-30T04:01:23.000Z,43.763440860215425
2023-12-30T04:02:25.000Z,46.774193548387515
2023-12-30T04:03:27.000Z,45.91397849462406
2023-12-30T04:04:29.000Z,44.19354838709715
2023-12-30T04:05:31.000Z,52.04301075268867
2023-12-30T04:06:34.000Z,45.80645161290363
2023-12-30T04:07:36.000Z,46.129032258064925
2023-12-30T04:08:38.000Z,46.66666666666708
2023-12-30T04:09:40.000Z,48.494623655914424
2023-12-30T04:10:42.000Z,45.05376344086061
2023-12-30T04:11:44.000Z,46.88172043010795
2023-12-30T04:12:46.000Z,48.81720430107572
2023-12-30T04:13:49.000Z,46.88172043010795
2023-12-30T04:14:51.000Z,46.34408602150579
2023-12-30T04:15:53.000Z,49.56989247311874
2023-12-30T04:16:55.000Z,46.55913978494665
2023-12-30T04:17:57.000Z,47.20430107526924
2023-12-30T04:18:59.000Z,46.45161290322622
2023-12-30T04:20:01.000Z,46.34408602150579
2023-12-30T04:21:03.000Z,47.52688172043054
2023-12-30T04:22:06.000Z,46.55913978494665
2023-12-30T04:23:08.000Z,44.62365591397888
2023-12-30T04:24:10.000Z,50.86021505376392
2023-12-30T04:25:12.000Z,47.63440860215097
2023-12-30T04:26:14.000Z,47.09677419354881
2023-12-30T04:27:21.000Z,49.247311827957446
2023-12-30T04:28:23.000Z,49.677419354839174
2023-12-30T04:29:26.000Z,45.91397849462406
2023-12-30T04:30:28.000Z,46.774193548387515
2023-12-30T04:31:30.000Z,48.17204301075313
2023-12-30T04:32:32.000Z,49.56989247311874
2023-12-30T04:33:34.000Z,47.20430107526924
2023-12-30T04:34:36.000Z,46.02150537634449
2023-12-30T04:35:39.000Z,47.84946236559183
2023-12-30T04:36:41.000Z,46.02150537634449
2023-12-30T04:37:43.000Z,47.311827956989674
2023-12-30T04:38:45.000Z,46.129032258064925
2023-12-30T04:39:47.000Z,49.35483870967788
2023-12-30T04:40:49.000Z,46.02150537634449
2023-12-30T04:41:51.000Z,47.09677419354881
2023-12-30T04:42:53.000Z,48.70967741935529
2023-12-30T04:43:56.000Z,47.09677419354881
2023-12-30T04:44:58.000Z,43.225806451613266
2023-12-30T04:46:00.000Z,45.05376344086061
2023-12-30T04:47:02.000Z,45.16129032258104
2023-12-30T04:48:04.000Z,52.688172043011264
2023-12-30T04:49:06.000Z,47.52688172043054
2023-12-30T04:50:08.000Z,45.483870967742334
2023-12-30T04:51:11.000Z,44.301075268817584
2023-12-30T04:52:13.000Z,46.88172043010795
2023-12-30T04:53:15.000Z,48.92473118279615
2023-12-30T04:54:17.000Z,48.92473118279615
2023-12-30T04:55:19.000Z,55.59139784946292
2023-12-30T04:56:21.000Z,53.01075268817256
2023-12-30T04:57:23.000Z,50.64516129032306
2023-12-30T04:58:25.000Z,56.451612903226376
2023-12-30T04:59:28.000Z,50.322580645161764
2023-12-30T05:00:30.000Z,46.34408602150579
2023-12-30T05:01:32.000Z,53.11827956989299
2023-12-30T05:02:34.000Z,55.05376344086076
2023-12-30T05:03:36.000Z,51.18279569892522
2023-12-30T05:04:38.000Z,50.64516129032306
2023-12-30T05:05:40.000Z,54.30107526881774
2023-12-30T05:06:43.000Z,52.795698924731695
2023-12-30T05:07:45.000Z,52.150537634409105
2023-12-30T05:08:47.000Z,48.17204301075313
2023-12-30T05:09:49.000Z,50.21505376344133
2023-12-30T05:10:51.000Z,54.623655913979036
2023-12-30T05:11:53.000Z,51.505376344086514
2023-12-30T05:12:55.000Z,53.11827956989299
2023-12-30T05:13:57.000Z,49.35483870967788
2023-12-30T05:15:00.000Z,49.247311827957446
2023-12-30T05:16:02.000Z,51.07526881720479
2023-12-30T05:17:04.000Z,51.29032258064565
2023-12-30T05:18:06.000Z,49.56989247311874
2023-12-30T05:19:08.000Z,54.30107526881774
2023-12-30T05:20:10.000Z,51.505376344086514
2023-12-30T05:21:12.000Z,49.89247311828004
2023-12-30T05:22:14.000Z,52.4731182795704
2023-12-30T05:23:17.000Z,51.29032258064565
2023-12-30T05:24:19.000Z,53.11827956989299
2023-12-30T05:25:21.000Z,56.12903225806508
2023-12-30T05:26:23.000Z,58.92473118279631
2023-12-30T05:27:25.000Z,51.505376344086514
2023-12-30T05:28:27.000Z,50.75268817204349
2023-12-30T05:29:29.000Z,52.4731182795704
2023-12-30T05:30:32.000Z,51.505376344086514
2023-12-30T05:31:34.000Z,47.84946236559183
2023-12-30T05:32:36.000Z,53.65591397849515
2023-12-30T05:33:39.000Z,48.0645161290327
2023-12-30T05:34:41.000Z,47.20430107526924
2023-12-30T05:35:43.000Z,50.75268817204349
2023-12-30T05:36:45.000Z,46.98924731182838
2023-12-30T05:37:47.000Z,47.52688172043054
2023-12-30T05:38:49.000Z,46.98924731182838
2023-12-30T05:39:51.000Z,46.45161290322622
2023-12-30T05:40:54.000Z,46.88172043010795
2023-12-30T05:41:56.000Z,47.84946236559183
2023-12-30T05:42:58.000Z,46.55913978494665
2023-12-30T05:44:00.000Z,43.3333333333337
2023-12-30T05:45:02.000Z,48.38709677419399
2023-12-30T05:46:04.000Z,42.90322580645197
2023-12-30T05:47:06.000Z,52.150537634409105
2023-12-30T05:48:10.000Z,44.946236559140175
2023-12-30T05:49:12.000Z,44.08602150537672
2023-12-30T05:50:14.000Z,44.946236559140175
2023-12-30T05:51:16.000Z,42.79569892473154
2023-12-30T05:52:18.000Z,43.118279569892835
2023-12-30T05:53:20.000Z,43.97849462365629
2023-12-30T05:54:22.000Z,42.68817204301111
2023-12-30T05:55:25.000Z,43.0107526881724
2023-12-30T05:56:27.000Z,46.236559139785356
2023-12-30T05:57:29.000Z,42.36559139784981
2023-12-30T05:58:31.000Z,42.15053763440895
2023-12-30T05:59:33.000Z,43.44086021505413
2023-12-30T06:00:35.000Z,43.225806451613266
2023-12-30T06:01:37.000Z,49.56989247311874
2023-12-30T06:02:39.000Z,44.408602150538016
2023-12-30T06:03:42.000Z,47.52688172043054
2023-12-30T06:04:44.000Z,43.87096774193586
2023-12-30T06:05:46.000Z,45.3763440860219
2023-12-30T06:06:48.000Z,44.946236559140175
2023-12-30T06:07:50.000Z,43.54838709677456
2023-12-30T06:08:52.000Z,44.51612903225845
2023-12-30T06:09:54.000Z,42.79569892473154
2023-12-30T06:10:57.000Z,42.25806451612938
2023-12-30T06:11:59.000Z,43.44086021505413
2023-12-30T06:13:01.000Z,42.580645161290676
2023-12-30T06:14:03.000Z,45.6989247311832
2023-12-30T06:15:05.000Z,43.97849462365629
2023-12-30T06:16:07.000Z,42.04301075268852
2023-12-30T06:17:09.000Z,42.473118279570244
2023-12-30T06:18:12.000Z,43.118279569892835
2023-12-30T06:19:14.000Z,42.25806451612938
2023-12-30T06:20:16.000Z,45.483870967742334
2023-12-30T06:21:18.000Z,43.65591397849499
2023-12-30T06:22:20.000Z,44.408602150538016
2023-12-30T06:23:22.000Z,44.301075268817584
2023-12-30T06:24:24.000Z,43.65591397849499
2023-12-30T06:25:26.000Z,43.54838709677456
2023-12-30T06:26:29.000Z,44.73118279569931
2023-12-30T06:27:31.000Z,47.84946236559183
2023-12-30T06:28:33.000Z,43.763440860215425
2023-12-30T06:29:35.000Z,42.68817204301111
2023-12-30T06:30:37.000Z,44.301075268817584
2023-12-30T06:31:39.000Z,44.946236559140175
2023-12-30T06:32:41.000Z,44.62365591397888
2023-12-30T06:33:44.000Z,45.05376344086061
2023-12-30T06:34:46.000Z,45.6989247311832
2023-12-30T06:35:48.000Z,49.89247311828004
2023-12-30T06:36:50.000Z,46.66666666666708
2023-12-30T06:37:52.000Z,43.44086021505413
2023-12-30T06:38:54.000Z,43.3333333333337
2023-12-30T06:39:56.000Z,44.73118279569931
2023-12-30T06:40:58.000Z,42.473118279570244
2023-12-30T06:42:01.000Z,41.72043010752722
2023-12-30T06:43:03.000Z,42.15053763440895
2023-12-30T06:44:05.000Z,41.935483870968085
2023-12-30T06:45:07.000Z,41.72043010752722
2023-12-30T06:46:09.000Z,48.17204301075313
2023-12-30T06:47:11.000Z,43.65591397849499
2023-12-30T06:48:14.000Z,47.52688172043054
2023-12-30T06:49:16.000Z,48.494623655914424
2023-12-30T06:50:18.000Z,48.17204301075313
2023-12-30T06:51:20.000Z,48.38709677419399
2023-12-30T06:52:22.000Z,48.81720430107572
2023-12-30T06:53:24.000Z,42.04301075268852
2023-12-30T06:54:26.000Z,44.73118279569931
2023-12-30T06:55:28.000Z,43.97849462365629
2023-12-30T06:56:31.000Z,43.0107526881724
2023-12-30T06:57:33.000Z,48.38709677419399
2023-12-30T06:58:35.000Z,48.92473118279615
2023-12-30T06:59:37.000Z,48.0645161290327
2023-12-30T07:00:39.000Z,49.56989247311874
2023-12-30T07:01:41.000Z,48.17204301075313
2023-12-30T07:02:43.000Z,48.70967741935529
2023-12-30T07:03:46.000Z,49.46236559139831
2023-12-30T07:04:48.000Z,47.84946236559183
2023-12-30T07:05:50.000Z,43.0107526881724
2023-12-30T07:06:52.000Z,42.36559139784981
2023-12-30T07:07:54.000Z,44.73118279569931
2023-12-30T07:08:56.000Z,44.73118279569931
2023-12-30T07:09:58.000Z,47.20430107526924
2023-12-30T07:11:00.000Z,44.73118279569931
2023-12-30T07:12:02.000Z,44.301075268817584
2023-12-30T07:13:05.000Z,50.64516129032306
2023-12-30T07:14:07.000Z,44.62365591397888
2023-12-30T07:15:09.000Z,49.56989247311874
2023-12-30T07:16:11.000Z,46.45161290322622
2023-12-30T07:17:13.000Z,46.55913978494665
2023-12-30T07:18:15.000Z,47.20430107526924
2023-12-30T07:19:17.000Z,50.00000000000047
2023-12-30T07:20:20.000Z,45.16129032258104
2023-12-30T07:21:22.000Z,46.88172043010795
2023-12-30T07:22:24.000Z,45.483870967742334
2023-12-30T07:23:26.000Z,47.84946236559183
2023-12-30T07:24:28.000Z,49.677419354839174
2023-12-30T07:25:30.000Z,46.98924731182838
2023-12-30T07:26:33.000Z,48.27956989247356
2023-12-30T07:27:35.000Z,48.602150537634856
2023-12-30T07:28:37.000Z,49.46236559139831
2023-12-30T07:29:39.000Z,50.64516129032306
2023-12-30T07:30:41.000Z,49.56989247311874
2023-12-30T07:31:43.000Z,47.63440860215097
2023-12-30T07:32:45.000Z,47.09677419354881
2023-12-30T07:33:48.000Z,50.1075268817209
2023-12-30T07:34:50.000Z,46.98924731182838
2023-12-30T07:35:52.000Z,45.6989247311832
2023-12-30T07:36:54.000Z,44.83870967741974
2023-12-30T07:37:56.000Z,47.956989247312265
2023-12-30T07:38:58.000Z,47.09677419354881
2023-12-30T07:40:00.000Z,46.774193548387515
2023-12-30T07:41:02.000Z,48.70967741935529
2023-12-30T07:42:05.000Z,44.62365591397888
2023-12-30T07:43:07.000Z,45.483870967742334
2023-12-30T07:44:09.000Z,46.88172043010795
2023-12-30T07:45:11.000Z,49.247311827957446
2023-12-30T07:46:13.000Z,46.45161290322622
2023-12-30T07:47:15.000Z,48.38709677419399
2023-12-30T07:48:17.000Z,50.21505376344133
2023-12-30T07:49:19.000Z,44.73118279569931
2023-12-30T07:50:22.000Z,45.16129032258104
2023-12-30T07:51:24.000Z,53.978494623656445
2023-12-30T07:52:26.000Z,45.05376344086061
2023-12-30T07:53:28.000Z,51.612903225806946
2023-12-30T07:54:30.000Z,44.73118279569931
2023-12-30T07:55:32.000Z,46.34408602150579
2023-12-30T07:56:34.000Z,50.967741935484355
2023-12-30T07:57:36.000Z,49.139784946237015
2023-12-30T07:58:39.000Z,50.21505376344133
2023-12-30T07:59:41.000Z,49.784946236559605
2023-12-30T08:00:43.000Z,49.139784946237015
2023-12-30T08:01:45.000Z,49.46236559139831
2023-12-30T08:02:47.000Z,49.247311827957446
2023-12-30T08:03:49.000Z,46.774193548387515
2023-12-30T08:04:52.000Z,48.81720430107572
2023-12-30T08:05:54.000Z,48.38709677419399
2023-12-30T08:06:56.000Z,47.311827956989674
2023-12-30T08:07:58.000Z,50.75268817204349
2023-12-30T08:09:00.000Z,47.20430107526924
2023-12-30T08:10:02.000Z,46.66666666666708
2023-12-30T08:11:04.000Z,56.55913978494681
2023-12-30T08:12:06.000Z,46.774193548387515
2023-12-30T08:13:09.000Z,47.311827956989674
2023-12-30T08:14:11.000Z,53.65591397849515
2023-12-30T08:15:13.000Z,48.17204301075313
2023-12-30T08:16:15.000Z,47.419354838710106
2023-12-30T08:17:17.000Z,50.00000000000047
2023-12-30T08:18:19.000Z,46.45161290322622
2023-12-30T08:19:26.000Z,49.35483870967788
2023-12-30T08:20:29.000Z,47.63440860215097
2023-12-30T08:21:31.000Z,47.419354838710106
2023-12-30T08:22:33.000Z,48.494623655914424
2023-12-30T08:23:35.000Z,46.129032258064925
2023-12-30T08:24:37.000Z,49.247311827957446
2023-12-30T08:25:39.000Z,47.63440860215097
2023-12-30T08:26:41.000Z,48.17204301075313
2023-12-30T08:27:44.000Z,46.02150537634449
2023-12-30T08:28:46.000Z,45.91397849462406
2023-12-30T08:29:48.000Z,48.92473118279615
2023-12-30T08:30:50.000Z,47.09677419354881
2023-12-30T08:31:52.000Z,48.17204301075313
2023-12-30T08:32:54.000Z,50.1075268817209
2023-12-30T08:33:56.000Z,53.01075268817256
2023-12-30T08:34:58.000Z,48.602150537634856
2023-12-30T08:36:01.000Z,49.56989247311874
2023-12-30T08:37:03.000Z,48.494623655914424
2023-12-30T08:38:05.000Z,48.38709677419399
2023-12-30T08:39:07.000Z,47.09677419354881
2023-12-30T08:40:09.000Z,48.27956989247356
2023-12-30T08:41:11.000Z,49.35483870967788
2023-12-30T08:42:13.000Z,50.00000000000047
2023-12-30T08:43:16.000Z,48.602150537634856
2023-12-30T08:44:18.000Z,59.462365591398466
2023-12-30T08:45:20.000Z,50.64516129032306
2023-12-30T08:46:22.000Z,55.37634408602206
2023-12-30T08:47:24.000Z,52.150537634409105
2023-12-30T08:48:26.000Z,64.94623655914049
2023-12-30T08:49:28.000Z,47.20430107526924
2023-12-30T08:50:32.000Z,51.07526881720479
2023-12-30T08:51:34.000Z,49.46236559139831
2023-12-30T08:52:36.000Z,47.311827956989674
2023-12-30T08:53:38.000Z,49.677419354839174
2023-12-30T08:54:40.000Z,47.7419354838714
2023-12-30T08:55:42.000Z,48.92473118279615
2023-12-30T08:56:44.000Z,49.89247311828004
2023-12-30T08:57:46.000Z,48.38709677419399
2023-12-30T08:58:49.000Z,60.21505376344149
2023-12-30T08:59:51.000Z,48.38709677419399
2023-12-30T09:00:53.000Z,46.88172043010795
2023-12-30T09:01:55.000Z,50.430107526882196
2023-12-30T09:02:57.000Z,47.956989247312265
2023-12-30T09:03:59.000Z,46.34408602150579
2023-12-30T09:05:01.000Z,54.8387096774199
2023-12-30T09:06:04.000Z,49.35483870967788
2023-12-30T09:07:06.000Z,47.52688172043054
2023-12-30T09:08:08.000Z,49.784946236559605
2023-12-30T09:09:10.000Z,47.84946236559183
2023-12-30T09:10:12.000Z,46.236559139785356
2023-12-30T09:11:14.000Z,47.09677419354881
2023-12-30T09:12:16.000Z,56.451612903226376
2023-12-30T09:13:19.000Z,50.00000000000047
2023-12-30T09:14:21.000Z,48.70967741935529
2023-12-30T09:15:23.000Z,48.81720430107572
2023-12-30T09:16:25.000Z,49.56989247311874
2023-12-30T09:17:27.000Z,50.53763440860263
2023-12-30T09:18:29.000Z,57.74193548387156
2023-12-30T09:19:31.000Z,47.63440860215097
2023-12-30T09:20:34.000Z,48.70967741935529
2023-12-30T09:21:36.000Z,63.33333333333401
2023-12-30T09:22:38.000Z,50.53763440860263
2023-12-30T09:23:40.000Z,49.247311827957446
2023-12-30T09:24:42.000Z,53.01075268817256
2023-12-30T09:25:44.000Z,50.967741935484355
2023-12-30T09:26:47.000Z,57.31182795698983
2023-12-30T09:27:49.000Z,57.95698924731242
2023-12-30T09:28:51.000Z,59.13978494623717
2023-12-30T09:29:53.000Z,58.49462365591458
2023-12-30T09:30:55.000Z,47.419354838710106
2023-12-30T09:31:58.000Z,47.20430107526924
2023-12-30T09:33:00.000Z,48.27956989247356
2023-12-30T09:34:02.000Z,48.602150537634856